Temp: 6.7°C   Baro: 1024.4mb
  Wind: 0.9mph   Dir: WNW (289°)
  Rain: 0.2mm (0.0mm/hr)
  Solar: 0W/m2  Hum: 92%
 
Bath Spa Weather Historical Data
Daily Summary for March 15, 2019 Units:  English    Metric   Both
Next Day »
Daily Weekly Monthly Yearly Custom
  High: Low: Average:
Temperature: 53.2 °F 48.2 °F 50.5 °F
Dew Point: 50.5 °F 46.8 °F 48.6 °F
Humidity: 96% 89% 93%
Wind Speed: 37mph 0.9mph 12.8mph
Wind Gust: 38mph - -
Wind direction- - WNW
Pressure: 29.8 in 29.7 in -
Precipitation: 0.08 in    
Historical Graphs
 
 
Tabular Data for March 15, 2019
Time Temperature Dew Point Pressure Wind direction Wind Speed Wind Gust Humidity Rainfall Rate (Hourly) solar
00:04 50.7 °F 49.1 °F 29.8 in NW 15 mph 21 mph 94% 0 in 0.00 W/m2
00:09 50.7 °F 49.1 °F 29.7 in WNW 15 mph 21 mph 94% 0 in 0.00 W/m2
00:14 50.7 °F 49.1 °F 29.8 in SW 27 mph 27 mph 94% 0 in 0.00 W/m2
00:19 50.7 °F 49.1 °F 29.7 in West 12.1 mph 22 mph 94% 0 in 0.00 W/m2
00:24 50.7 °F 49.1 °F 29.7 in West 16.1 mph 30 mph 94% 0 in 0.00 W/m2
00:29 50.7 °F 49.1 °F 29.8 in NW 12.1 mph 25 mph 94% 0 in 0.00 W/m2
00:34 50.7 °F 49.1 °F 29.7 in West 8.1 mph 29 mph 94% 0 in 0.00 W/m2
00:39 50.7 °F 49.1 °F 29.7 in West 12.1 mph 24 mph 94% 0 in 0.00 W/m2
00:44 50.7 °F 49.1 °F 29.7 in West 12.1 mph 23 mph 94% 0 in 0.00 W/m2
00:49 50.7 °F 49.1 °F 29.7 in West 10.1 mph 26 mph 94% 0 in 0.00 W/m2
00:54 50.7 °F 49.1 °F 29.7 in NNW 10.1 mph 26 mph 94% 0 in 0.00 W/m2
00:59 50.7 °F 49.1 °F 29.7 in West 13 mph 30 mph 94% 0 in 0.00 W/m2
01:04 50.5 °F 48.6 °F 29.7 in NNW 10.1 mph 19 mph 93% 0 in 0.00 W/m2
01:09 50.5 °F 48.6 °F 29.7 in West 30 mph 30 mph 93% 0 in 0.00 W/m2
01:14 50.5 °F 48.9 °F 29.7 in WNW 32 mph 32 mph 94% 0 in 0.00 W/m2
01:19 50.5 °F 48.9 °F 29.7 in NNW 21 mph 21 mph 94% 0 in 0.00 W/m2
01:24 50.5 °F 48.9 °F 29.7 in WNW 23.9 mph 26 mph 94% 0 in 0.00 W/m2
01:29 50.5 °F 48.9 °F 29.7 in WNW 28 mph 28 mph 94% 0 in 0.00 W/m2
01:34 50.5 °F 48.9 °F 29.7 in WNW 4.9 mph 30 mph 94% 0 in 0.00 W/m2
01:39 50.5 °F 48.9 °F 29.7 in West 21.9 mph 32 mph 94% 0 in 0.00 W/m2
01:44 50.5 °F 48.9 °F 29.7 in WNW 19 mph 23 mph 94% 0 in 0.00 W/m2
01:49 50.7 °F 49.1 °F 29.7 in WNW 6.9 mph 33 mph 94% 0 in 0.00 W/m2
01:54 50.7 °F 49.1 °F 29.7 in NW 15 mph 31 mph 94% 0 in 0.00 W/m2
01:59 50.7 °F 49.1 °F 29.7 in WNW 12.1 mph 25 mph 94% 0 in 0.00 W/m2
02:04 50.7 °F 49.1 °F 29.7 in West 19.9 mph 20 mph 94% 0 in 0.00 W/m2
02:09 50.9 °F 48.9 °F 29.7 in West 11 mph 29 mph 93% 0 in 0.00 W/m2
02:14 50.9 °F 48.9 °F 29.7 in NW 19 mph 34 mph 93% 0 in 0.00 W/m2
02:19 50.9 °F 48.9 °F 29.7 in WNW 13 mph 23 mph 93% 0 in 0.00 W/m2
02:24 50.9 °F 48.9 °F 29.7 in West 19 mph 24 mph 93% 0 in 0.00 W/m2
02:29 50.9 °F 48.9 °F 29.7 in NW 30 mph 30 mph 93% 0 in 0.00 W/m2
02:34 50.9 °F 48.9 °F 29.7 in NW 10.1 mph 28 mph 93% 0 in 0.00 W/m2
02:39 50.9 °F 48.9 °F 29.7 in NW 13 mph 34 mph 93% 0 in 0.00 W/m2
02:44 50.9 °F 48.7 °F 29.7 in WSW 25.1 mph 25 mph 92% 0 in 0.00 W/m2
02:49 50.9 °F 48.7 °F 29.7 in NNW 17 mph 35 mph 92% 0 in 0.00 W/m2
02:54 50.9 °F 48.7 °F 29.7 in WNW 11 mph 22 mph 92% 0 in 0.00 W/m2
02:59 50.9 °F 48.7 °F 29.7 in WSW 11 mph 35 mph 92% 0 in 0.00 W/m2
03:04 50.9 °F 48.7 °F 29.7 in WNW 12.1 mph 28 mph 92% 0 in 0.00 W/m2
03:09 51.1 °F 48.9 °F 29.7 in WNW 17 mph 25 mph 92% 0 in 0.00 W/m2
03:14 50.9 °F 48.4 °F 29.7 in NW 10.1 mph 24 mph 91% 0 in 0.00 W/m2
03:19 50.9 °F 48.4 °F 29.7 in West 17.9 mph 21 mph 91% 0 in 0.00 W/m2
03:24 50.9 °F 48.4 °F 29.7 in West 14.1 mph 27 mph 91% 0 in 0.00 W/m2
03:29 51.1 °F 48.6 °F 29.7 in WNW 15 mph 24 mph 91% 0 in 0.00 W/m2
03:34 50.9 °F 48.4 °F 29.7 in WNW 30 mph 30 mph 91% 0 in 0.00 W/m2
03:39 50.9 °F 48.4 °F 29.7 in NW 15 mph 36 mph 91% 0 in 0.00 W/m2
03:44 51.1 °F 48.6 °F 29.7 in WNW 25.1 mph 27 mph 91% 0 in 0.00 W/m2
03:49 51.3 °F 48.7 °F 29.7 in West 15 mph 38 mph 91% 0.01 in 0.00 W/m2
03:54 51.3 °F 48.7 °F 29.7 in West 13 mph 23 mph 91% 0.01 in 0.00 W/m2
03:59 51.1 °F 48.6 °F 29.7 in West 17 mph 26 mph 91% 0.01 in 0.00 W/m2
04:04 51.1 °F 48.6 °F 29.7 in WNW 12.1 mph 18 mph 91% 0.01 in 0.00 W/m2
04:09 51.1 °F 48.6 °F 29.7 in NW 19.9 mph 29 mph 91% 0.01 in 0.00 W/m2
04:14 51.3 °F 48.7 °F 29.7 in WNW 12.1 mph 31 mph 91% 0.01 in 0.00 W/m2
04:19 51.3 °F 48.4 °F 29.7 in West 16.1 mph 24 mph 90% 0.01 in 0.00 W/m2
04:24 51.3 °F 48.4 °F 29.7 in North 21.9 mph 24 mph 90% 0.01 in 0.00 W/m2
04:29 51.3 °F 48.4 °F 29.7 in WNW 16.1 mph 31 mph 90% 0.01 in 0.00 W/m2
04:34 51.3 °F 48.4 °F 29.7 in WNW 4.9 mph 27 mph 90% 0.01 in 0.00 W/m2
04:39 51.4 °F 48.6 °F 29.7 in West 17.9 mph 36 mph 90% 0.01 in 0.00 W/m2
04:44 51.4 °F 48.6 °F 29.7 in West 14.1 mph 27 mph 90% 0.01 in 0.00 W/m2
04:49 51.3 °F 48.4 °F 29.7 in WNW 17.9 mph 34 mph 90% 0 in 0.00 W/m2
04:54 50.9 °F 48.4 °F 29.7 in WNW 19.9 mph 27 mph 91% 0 in 0.00 W/m2
04:59 50.9 °F 48.4 °F 29.7 in West 19 mph 29 mph 91% 0 in 0.00 W/m2
05:04 50.9 °F 48.7 °F 29.7 in WNW 23 mph 26 mph 92% 0 in 0.00 W/m2
05:09 50.7 °F 48.6 °F 29.7 in WNW 15 mph 31 mph 92% 0 in 0.00 W/m2
05:14 50.7 °F 48.6 °F 29.7 in WNW 12.1 mph 27 mph 92% 0 in 0.00 W/m2
05:19 50.7 °F 48.6 °F 29.7 in West 14.1 mph 32 mph 92% 0 in 0.00 W/m2
05:24 50.9 °F 48.7 °F 29.7 in WNW 17.9 mph 31 mph 92% 0 in 0.00 W/m2
05:29 50.7 °F 48.6 °F 29.7 in WNW 14.1 mph 25 mph 92% 0 in 0.00 W/m2
05:34 50.9 °F 48.7 °F 29.7 in West 19 mph 28 mph 92% 0 in 0.00 W/m2
05:39 50.7 °F 48.7 °F 29.7 in West 15 mph 29 mph 93% 0 in 0.00 W/m2
05:44 50.7 °F 48.7 °F 29.7 in West 14.1 mph 23 mph 93% 0 in 0.00 W/m2
05:49 50.7 °F 48.7 °F 29.7 in West 11 mph 23 mph 93% 0 in 0.00 W/m2
05:54 50.7 °F 48.7 °F 29.7 in West 11 mph 23 mph 93% 0 in 0.00 W/m2
05:59 50.7 °F 48.7 °F 29.7 in WNW 36 mph 36 mph 93% 0 in 0.00 W/m2
06:04 50.7 °F 48.7 °F 29.7 in West 16.1 mph 31 mph 93% 0 in 0.00 W/m2
06:09 50.7 °F 48.7 °F 29.7 in WNW 19.9 mph 21 mph 93% 0 in 0.00 W/m2
06:14 50.7 °F 48.7 °F 29.7 in West 21 mph 21 mph 93% 0 in 0.00 W/m2
06:19 50.7 °F 49.1 °F 29.7 in NW 8.1 mph 28 mph 94% 0 in 0.00 W/m2
06:24 50.5 °F 48.9 °F 29.7 in West 6 mph 25 mph 94% 0 in 0.00 W/m2
06:29 50.7 °F 49.1 °F 29.7 in West 19 mph 30 mph 94% 0 in 0.00 W/m2
06:34 50.7 °F 49.1 °F 29.7 in WNW 17 mph 36 mph 94% 0 in 0.00 W/m2
06:39 50.7 °F 49.1 °F 29.7 in West 16.1 mph 29 mph 94% 0 in 0.00 W/m2
06:44 50.7 °F 49.1 °F 29.7 in WNW 17 mph 28 mph 94% 0 in 0.00 W/m2
06:49 50.7 °F 49.1 °F 29.7 in West 14.1 mph 25 mph 94% 0 in 5.00 W/m2
06:54 50.7 °F 49.1 °F 29.7 in West 11 mph 19 mph 94% 0 in 7.00 W/m2
06:59 50.7 °F 49.1 °F 29.7 in WSW 19 mph 28 mph 94% 0 in 9.00 W/m2
07:04 50.9 °F 49.3 °F 29.7 in North 17.9 mph 38 mph 94% 0 in 11.00 W/m2
07:09 50.9 °F 48.9 °F 29.7 in NW 25.9 mph 36 mph 93% 0 in 12.00 W/m2
07:14 51.1 °F 49.1 °F 29.7 in NW 15 mph 26 mph 93% 0 in 16.00 W/m2
07:19 51.1 °F 49.1 °F 29.7 in WNW 8.9 mph 23 mph 93% 0 in 19.00 W/m2
07:24 50.9 °F 48.9 °F 29.7 in NW 8.9 mph 37 mph 93% 0 in 16.00 W/m2
07:29 50.9 °F 48.9 °F 29.7 in West 23 mph 25 mph 93% 0 in 21.00 W/m2
07:34 50.9 °F 48.9 °F 29.7 in WNW 12.1 mph 28 mph 93% 0.01 in 23.00 W/m2
07:39 50.9 °F 48.9 °F 29.8 in NNW 25.9 mph 34 mph 93% 0.01 in 28.00 W/m2
07:44 50.9 °F 48.9 °F 29.7 in WNW 21 mph 25 mph 93% 0.01 in 33.00 W/m2
07:49 50.9 °F 48.9 °F 29.7 in WNW 23 mph 34 mph 93% 0.01 in 40.00 W/m2
07:54 50.9 °F 49.3 °F 29.7 in WNW 16.1 mph 33 mph 94% 0.01 in 40.00 W/m2
07:59 50.9 °F 49.3 °F 29.8 in West 11 mph 31 mph 94% 0.01 in 35.00 W/m2
08:04 51.1 °F 49.5 °F 29.7 in WNW 16.1 mph 31 mph 94% 0.01 in 35.00 W/m2
08:09 51.3 °F 49.6 °F 29.8 in WSW 33 mph 33 mph 94% 0.01 in 39.00 W/m2
08:14 51.1 °F 49.1 °F 29.7 in WNW 17 mph 25 mph 93% 0.01 in 47.00 W/m2
08:19 51.3 °F 49.3 °F 29.8 in West 17 mph 34 mph 93% 0.01 in 53.00 W/m2
08:24 51.3 °F 49.3 °F 29.8 in West 15 mph 35 mph 93% 0.01 in 44.00 W/m2
08:29 51.3 °F 49.3 °F 29.8 in WNW 16.1 mph 30 mph 93% 0.01 in 46.00 W/m2
08:34 51.3 °F 49.3 °F 29.8 in WNW 21.9 mph 28 mph 93% 0 in 51.00 W/m2
08:39 51.3 °F 49.3 °F 29.8 in WNW 33 mph 33 mph 93% 0 in 49.00 W/m2
08:44 51.4 °F 49.5 °F 29.8 in WNW 19.9 mph 27 mph 93% 0 in 51.00 W/m2
08:49 51.4 °F 49.5 °F 29.8 in West 12.1 mph 35 mph 93% 0 in 53.00 W/m2
08:54 51.4 °F 49.5 °F 29.8 in West 8.9 mph 18 mph 93% 0 in 58.00 W/m2
08:59 51.4 °F 49.5 °F 29.8 in WNW 17 mph 26 mph 93% 0 in 56.00 W/m2
09:04 51.4 °F 49.5 °F 29.8 in NW 12.1 mph 26 mph 93% 0 in 67.00 W/m2
09:09 51.4 °F 49.5 °F 29.8 in WNW 13 mph 34 mph 93% 0 in 58.00 W/m2
09:14 51.4 °F 49.5 °F 29.8 in West 10.1 mph 25 mph 93% 0 in 70.00 W/m2
09:19 51.4 °F 49.5 °F 29.8 in West 17.9 mph 26 mph 93% 0 in 72.00 W/m2
09:24 51.4 °F 49.5 °F 29.8 in NW 13 mph 23 mph 93% 0 in 90.00 W/m2
09:29 51.4 °F 49.5 °F 29.8 in West 16.1 mph 29 mph 93% 0 in 93.00 W/m2
09:34 51.4 °F 49.5 °F 29.8 in WNW 10.1 mph 26 mph 93% 0 in 67.00 W/m2
09:39 51.4 °F 49.8 °F 29.8 in WNW 14.1 mph 23 mph 94% 0 in 63.00 W/m2
09:44 51.4 °F 49.8 °F 29.8 in West 14.1 mph 21 mph 94% 0 in 83.00 W/m2
09:49 51.4 °F 49.8 °F 29.8 in West 17 mph 23 mph 94% 0 in 97.00 W/m2
09:54 51.6 °F 50 °F 29.8 in WNW 11 mph 29 mph 94% 0 in 98.00 W/m2
09:59 51.6 °F 50 °F 29.8 in West 15 mph 23 mph 94% 0 in 97.00 W/m2
10:04 51.6 °F 50 °F 29.8 in WNW 16.1 mph 30 mph 94% 0 in 88.00 W/m2
10:09 51.8 °F 50.2 °F 29.8 in WNW 17.9 mph 28 mph 94% 0 in 90.00 W/m2
10:14 51.8 °F 49.8 °F 29.8 in West 6.9 mph 29 mph 93% 0 in 107.00 W/m2
10:19 52.2 °F 50.5 °F 29.8 in WNW 17.9 mph 30 mph 94% 0 in 128.00 W/m2
10:24 52.2 °F 50.2 °F 29.8 in WSW 17.9 mph 26 mph 93% 0 in 151.00 W/m2
10:29 52.3 °F 50.4 °F 29.8 in West 19.9 mph 28 mph 93% 0 in 153.00 W/m2
10:34 52.5 °F 50.5 °F 29.8 in West 16.1 mph 34 mph 93% 0 in 151.00 W/m2
10:39 52.5 °F 50.2 °F 29.8 in WNW 8.1 mph 37 mph 92% 0 in 125.00 W/m2
10:44 52.7 °F 50.4 °F 29.8 in NW 11 mph 32 mph 92% 0 in 109.00 W/m2
10:49 52.7 °F 50.2 °F 29.8 in NNW 14.1 mph 34 mph 91% 0 in 128.00 W/m2
10:54 52.7 °F 50.2 °F 29.8 in West 35 mph 35 mph 91% 0 in 149.00 W/m2
10:59 52.5 °F 50 °F 29.8 in West 13 mph 29 mph 91% 0 in 155.00 W/m2
11:04 52.7 °F 50.2 °F 29.8 in NW 11 mph 22 mph 91% 0 in 127.00 W/m2
11:09 52.7 °F 50.2 °F 29.8 in West 30 mph 30 mph 91% 0 in 127.00 W/m2
11:14 52.7 °F 50.2 °F 29.8 in WNW 37 mph 37 mph 91% 0 in 144.00 W/m2
11:19 52.9 °F 50.4 °F 29.8 in WNW 12.1 mph 33 mph 91% 0 in 125.00 W/m2
11:24 52.7 °F 50.2 °F 29.8 in West 17 mph 33 mph 91% 0 in 127.00 W/m2
11:29 53.1 °F 50.5 °F 29.8 in WSW 8.9 mph 25 mph 91% 0 in 167.00 W/m2
11:34 53.1 °F 50.2 °F 29.8 in SW 14.1 mph 29 mph 90% 0 in 128.00 W/m2
11:39 53.1 °F 50.2 °F 29.8 in West 31 mph 31 mph 90% 0 in 151.00 W/m2
11:44 53.1 °F 50.2 °F 29.8 in West 25.9 mph 33 mph 90% 0 in 116.00 W/m2
11:49 53.1 °F 50.2 °F 29.8 in WSW 21 mph 28 mph 90% 0 in 111.00 W/m2
11:54 53.1 °F 50.2 °F 29.8 in NW 15 mph 32 mph 90% 0 in 107.00 W/m2
11:59 53.2 °F 50.4 °F 29.8 in West 15 mph 33 mph 90% 0.01 in 153.00 W/m2
12:04 53.1 °F 50.2 °F 29.8 in WNW 15 mph 30 mph 90% 0.01 in 111.00 W/m2
12:09 53.2 °F 50.4 °F 29.8 in NW 19.9 mph 24 mph 90% 0.01 in 123.00 W/m2
12:14 53.1 °F 50.2 °F 29.8 in NW 17.9 mph 22 mph 90% 0.01 in 109.00 W/m2
12:19 53.1 °F 50.2 °F 29.8 in WNW 19 mph 29 mph 90% 0.01 in 109.00 W/m2
12:24 53.1 °F 50.2 °F 29.8 in West 8.9 mph 29 mph 90% 0.01 in 137.00 W/m2
12:29 53.2 °F 50.4 °F 29.8 in West 33 mph 33 mph 90% 0.01 in 107.00 W/m2
12:34 53.1 °F 49.8 °F 29.8 in WNW 16.1 mph 34 mph 89% 0.01 in 95.00 W/m2
12:39 53.1 °F 49.8 °F 29.8 in WSW 19 mph 31 mph 89% 0.01 in 127.00 W/m2
12:44 52.9 °F 49.6 °F 29.8 in WSW 13 mph 28 mph 89% 0.01 in 104.00 W/m2
12:49 53.1 °F 50.2 °F 29.8 in West 21.9 mph 30 mph 90% 0.01 in 132.00 W/m2
12:54 53.1 °F 49.8 °F 29.8 in WNW 23 mph 30 mph 89% 0.01 in 93.00 W/m2
12:59 53.1 °F 50.2 °F 29.8 in West 21 mph 31 mph 90% 0 in 88.00 W/m2
13:04 52.7 °F 49.8 °F 29.8 in WNW 28 mph 31 mph 90% 0 in 91.00 W/m2
13:09 52.7 °F 49.8 °F 29.8 in NW 17.9 mph 33 mph 90% 0 in 88.00 W/m2
13:14 52.7 °F 49.8 °F 29.8 in NNW 13 mph 26 mph 90% 0 in 100.00 W/m2
13:19 52.7 °F 49.8 °F 29.8 in WNW 17.9 mph 31 mph 90% 0 in 83.00 W/m2
13:24 52.7 °F 49.8 °F 29.8 in WNW 23.9 mph 31 mph 90% 0 in 70.00 W/m2
13:29 52.5 °F 49.6 °F 29.8 in WNW 23.9 mph 31 mph 90% 0 in 65.00 W/m2
13:34 52.3 °F 49.5 °F 29.8 in West 27.1 mph 27 mph 90% 0 in 72.00 W/m2
13:39 52.2 °F 49.6 °F 29.8 in West 17 mph 26 mph 91% 0 in 62.00 W/m2
13:44 51.8 °F 49.3 °F 29.8 in WNW 15 mph 32 mph 91% 0 in 104.00 W/m2
13:49 51.6 °F 49.1 °F 29.8 in NNW 15 mph 34 mph 91% 0 in 113.00 W/m2
13:54 51.4 °F 49.3 °F 29.8 in West 17.9 mph 30 mph 92% 0 in 135.00 W/m2
13:59 51.3 °F 49.1 °F 29.8 in West 17.9 mph 28 mph 92% 0 in 113.00 W/m2
14:04 51.3 °F 49.1 °F 29.8 in WNW 15 mph 22 mph 92% 0 in 127.00 W/m2
14:09 51.3 °F 49.1 °F 29.8 in West 8.9 mph 19 mph 92% 0 in 114.00 W/m2
14:14 51.4 °F 49.3 °F 29.8 in WNW 6.9 mph 13 mph 92% 0 in 128.00 W/m2
14:19 51.4 °F 48.9 °F 29.8 in WNW 17 mph 25 mph 91% 0 in 146.00 W/m2
14:24 51.4 °F 48.9 °F 29.8 in West 13 mph 23 mph 91% 0 in 134.00 W/m2
14:29 51.6 °F 48.7 °F 29.8 in WNW 11 mph 17 mph 90% 0 in 132.00 W/m2
14:34 51.6 °F 48.7 °F 29.8 in West 11 mph 20 mph 90% 0 in 123.00 W/m2
14:39 51.6 °F 48.7 °F 29.8 in NW 8.9 mph 10 mph 90% 0 in 127.00 W/m2
14:44 51.6 °F 48.6 °F 29.8 in West 8.9 mph 21 mph 89% 0 in 127.00 W/m2
14:49 51.6 °F 48.6 °F 29.8 in NW 10.1 mph 16 mph 89% 0 in 134.00 W/m2
14:54 51.3 °F 48.4 °F 29.8 in West 8.9 mph 22 mph 90% 0 in 114.00 W/m2
14:59 51.3 °F 48.4 °F 29.8 in West 6 mph 15 mph 90% 0 in 88.00 W/m2
15:04 50.9 °F 48 °F 29.8 in WNW 11 mph 18 mph 90% 0 in 79.00 W/m2
15:09 50.7 °F 48.2 °F 29.8 in NW 12.1 mph 12 mph 91% 0 in 76.00 W/m2
15:14 50.5 °F 48.4 °F 29.8 in WNW 15 mph 21 mph 92% 0 in 91.00 W/m2
15:19 50.4 °F 48.2 °F 29.8 in WNW 17 mph 19 mph 92% 0 in 74.00 W/m2
15:24 50.2 °F 48 °F 29.8 in West 6 mph 13 mph 92% 0 in 72.00 W/m2
15:29 50 °F 48 °F 29.8 in West 8.9 mph 19 mph 93% 0 in 77.00 W/m2
15:34 50 °F 48 °F 29.8 in NW 8.9 mph 13 mph 93% 0 in 69.00 W/m2
15:39 49.8 °F 47.8 °F 29.8 in WNW 6 mph 12 mph 93% 0 in 67.00 W/m2
15:44 49.8 °F 47.8 °F 29.8 in WNW 2 mph 10 mph 93% 0 in 47.00 W/m2
15:49 49.6 °F 47.7 °F 29.8 in West 10.1 mph 18 mph 93% 0 in 42.00 W/m2
15:54 49.5 °F 47.5 °F 29.8 in West 4.9 mph 13 mph 93% 0 in 65.00 W/m2
15:59 49.5 °F 47.8 °F 29.8 in WNW 4 mph 20 mph 94% 0 in 53.00 W/m2
16:04 49.1 °F 47.5 °F 29.8 in West 16.1 mph 25 mph 94% 0 in 47.00 W/m2
16:09 49.1 °F 47.5 °F 29.8 in WNW 6.9 mph 11 mph 94% 0 in 47.00 W/m2
16:14 48.9 °F 46.9 °F 29.8 in WNW 2.9 mph 15 mph 93% 0 in 51.00 W/m2
16:19 48.9 °F 47.3 °F 29.8 in WNW 6.9 mph 12 mph 94% 0 in 44.00 W/m2
16:24 49.1 °F 47.5 °F 29.8 in WNW 10.1 mph 10 mph 94% 0 in 46.00 W/m2
16:29 48.9 °F 47.3 °F 29.8 in West 6 mph 15 mph 94% 0 in 47.00 W/m2
16:34 48.9 °F 47.3 °F 29.8 in WNW 6 mph 11 mph 94% 0 in 37.00 W/m2
16:39 48.7 °F 47.1 °F 29.8 in WNW 11 mph 14 mph 94% 0 in 46.00 W/m2
16:44 48.7 °F 47.1 °F 29.8 in NNW 8.1 mph 11 mph 94% 0 in 44.00 W/m2
16:49 48.6 °F 46.9 °F 29.8 in WNW 8.1 mph 13 mph 94% 0 in 46.00 W/m2
16:54 48.6 °F 46.9 °F 29.8 in WNW 8.9 mph 12 mph 94% 0 in 39.00 W/m2
16:59 48.6 °F 46.9 °F 29.8 in WNW 6 mph 13 mph 94% 0 in 28.00 W/m2
17:04 48.6 °F 46.9 °F 29.8 in West 8.9 mph 10 mph 94% 0 in 23.00 W/m2
17:09 48.6 °F 46.9 °F 29.8 in NNW 2 mph 13 mph 94% 0 in 25.00 W/m2
17:14 48.6 °F 46.9 °F 29.8 in WNW 8.1 mph 15 mph 94% 0 in 21.00 W/m2
17:19 48.6 °F 46.9 °F 29.8 in NW 4 mph 14 mph 94% 0 in 14.00 W/m2
17:24 48.4 °F 46.8 °F 29.8 in West 10.1 mph 14 mph 94% 0 in 14.00 W/m2
17:29 48.6 °F 46.9 °F 29.8 in West 8.9 mph 14 mph 94% 0 in 14.00 W/m2
17:34 48.4 °F 46.8 °F 29.8 in WNW 17 mph 17 mph 94% 0 in 11.00 W/m2
17:39 48.4 °F 46.8 °F 29.8 in WNW 6 mph 10 mph 94% 0 in 11.00 W/m2
17:44 48.4 °F 46.8 °F 29.8 in WNW 8.9 mph 11 mph 94% 0 in 9.00 W/m2
17:49 48.4 °F 46.8 °F 29.8 in West 4 mph 15 mph 94% 0 in 7.00 W/m2
17:53 48.4 °F 46.8 °F 29.8 in West 6.9 mph 13 mph 94% 0 in 5.00 W/m2
17:58 48.4 °F 46.8 °F 29.8 in WNW 6 mph 9 mph 94% 0 in 0.00 W/m2
18:04 48.4 °F 46.8 °F 29.8 in West 4 mph 9 mph 94% 0 in 0.00 W/m2
18:09 48.4 °F 46.8 °F 29.8 in WNW 6 mph 10 mph 94% 0 in 0.00 W/m2
18:14 48.4 °F 46.8 °F 29.8 in WSW 4 mph 9 mph 94% 0 in 0.00 W/m2
18:19 48.6 °F 46.9 °F 29.8 in WNW 6.9 mph 10 mph 94% 0 in 0.00 W/m2
18:24 48.6 °F 46.9 °F 29.8 in West 6 mph 11 mph 94% 0 in 0.00 W/m2
18:29 48.4 °F 46.8 °F 29.8 in WSW 4 mph 10 mph 94% 0 in 0.00 W/m2
18:34 48.4 °F 46.8 °F 29.8 in West 4 mph 9 mph 94% 0 in 0.00 W/m2
18:39 48.6 °F 46.9 °F 29.8 in West 4 mph 10 mph 94% 0 in 0.00 W/m2
18:44 48.6 °F 46.9 °F 29.8 in WNW 6.9 mph 11 mph 94% 0 in 0.00 W/m2
18:49 48.6 °F 46.9 °F 29.8 in West 8.1 mph 9 mph 94% 0 in 0.00 W/m2
18:54 48.6 °F 46.9 °F 29.8 in WNW 6 mph 9 mph 94% 0 in 0.00 W/m2
18:59 48.7 °F 47.1 °F 29.8 in WNW 2.9 mph 7 mph 94% 0 in 0.00 W/m2
19:04 48.6 °F 46.9 °F 29.8 in WNW 2 mph 10 mph 94% 0 in 0.00 W/m2
19:09 48.6 °F 46.9 °F 29.8 in WSW 4 mph 10 mph 94% 0 in 0.00 W/m2
19:14 48.7 °F 47.3 °F 29.8 in WSW 4.9 mph 8 mph 95% 0 in 0.00 W/m2
19:19 48.6 °F 47.1 °F 29.8 in West 4.9 mph 9 mph 95% 0 in 0.00 W/m2
19:24 48.6 °F 47.1 °F 29.8 in West 2.9 mph 7 mph 95% 0 in 0.00 W/m2
19:29 48.6 °F 47.1 °F 29.8 in West 4 mph 8 mph 95% 0 in 0.00 W/m2
19:34 48.6 °F 47.1 °F 29.8 in WNW 8.9 mph 9 mph 95% 0 in 0.00 W/m2
19:39 48.6 °F 47.1 °F 29.8 in WNW 0.9 mph 9 mph 95% 0 in 0.00 W/m2
19:44 48.6 °F 47.1 °F 29.8 in West 4 mph 11 mph 95% 0 in 0.00 W/m2
19:49 48.6 °F 47.1 °F 29.8 in WNW 2 mph 7 mph 95% 0 in 0.00 W/m2
19:54 48.6 °F 47.1 °F 29.8 in West 6.9 mph 9 mph 95% 0 in 0.00 W/m2
19:59 48.6 °F 47.1 °F 29.8 in West 6.9 mph 12 mph 95% 0 in 0.00 W/m2
20:04 48.4 °F 46.9 °F 29.8 in West 2.9 mph 7 mph 95% 0 in 0.00 W/m2
20:09 48.6 °F 47.1 °F 29.8 in West 4 mph 10 mph 95% 0 in 0.00 W/m2
20:14 48.4 °F 46.9 °F 29.8 in West 4 mph 10 mph 95% 0 in 0.00 W/m2
20:19 48.4 °F 46.9 °F 29.8 in WSW 4 mph 9 mph 95% 0 in 0.00 W/m2
20:24 48.4 °F 46.9 °F 29.8 in WNW 6.9 mph 8 mph 95% 0 in 0.00 W/m2
20:29 48.2 °F 46.8 °F 29.8 in WNW 4.9 mph 7 mph 95% 0 in 0.00 W/m2
20:34 48.2 °F 46.8 °F 29.8 in West 6 mph 9 mph 95% 0 in 0.00 W/m2
20:39 48.2 °F 46.8 °F 29.8 in West 4 mph 8 mph 95% 0 in 0.00 W/m2
20:44 48.2 °F 46.8 °F 29.8 in WNW 2 mph 9 mph 95% 0 in 0.00 W/m2
20:49 48.2 °F 46.8 °F 29.8 in WNW 4 mph 10 mph 95% 0 in 0.00 W/m2
20:54 48.2 °F 46.8 °F 29.8 in WNW 0.9 mph 7 mph 95% 0 in 0.00 W/m2
20:59 48.2 °F 46.8 °F 29.8 in West 9 mph 9 mph 95% 0 in 0.00 W/m2
21:04 48.2 °F 46.8 °F 29.8 in West 2 mph 8 mph 95% 0 in 0.00 W/m2
21:09 48.2 °F 46.8 °F 29.8 in West 4.9 mph 6 mph 95% 0 in 0.00 W/m2
21:14 48.2 °F 46.8 °F 29.8 in West 4.9 mph 5 mph 95% 0.01 in 0.00 W/m2
21:19 48.2 °F 46.8 °F 29.8 in West 6 mph 7 mph 95% 0.01 in 0.00 W/m2
21:24 48.2 °F 46.8 °F 29.8 in WSW 2.9 mph 6 mph 95% 0.01 in 0.00 W/m2
21:29 48.4 °F 46.9 °F 29.8 in West 4 mph 9 mph 95% 0.01 in 0.00 W/m2
21:34 48.6 °F 47.5 °F 29.8 in West 10 mph 10 mph 96% 0.01 in 0.00 W/m2
21:39 48.6 °F 47.5 °F 29.8 in WNW 6 mph 7 mph 96% 0.01 in 0.00 W/m2
21:44 48.9 °F 47.8 °F 29.8 in West 4 mph 8 mph 96% 0.01 in 0.00 W/m2
21:49 49.1 °F 48 °F 29.8 in WSW 4.9 mph 9 mph 96% 0.01 in 0.00 W/m2
21:54 49.3 °F 48.2 °F 29.8 in West 4.9 mph 9 mph 96% 0.02 in 0.00 W/m2
21:59 49.5 °F 48.4 °F 29.8 in West 4.9 mph 8 mph 96% 0.02 in 0.00 W/m2
22:04 49.6 °F 48.6 °F 29.8 in WSW 6 mph 8 mph 96% 0.02 in 0.00 W/m2
22:09 49.8 °F 48.7 °F 29.8 in WSW 8.1 mph 13 mph 96% 0.01 in 0.00 W/m2
22:14 50 °F 48.9 °F 29.8 in WSW 8.1 mph 8 mph 96% 0.01 in 0.00 W/m2
22:19 50 °F 48.9 °F 29.8 in WSW 6.9 mph 12 mph 96% 0.01 in 0.00 W/m2
22:24 50.2 °F 49.1 °F 29.8 in WSW 15 mph 15 mph 96% 0.01 in 0.00 W/m2
22:29 50.2 °F 49.1 °F 29.8 in WSW 8.9 mph 14 mph 96% 0.02 in 0.00 W/m2
22:34 50.2 °F 49.1 °F 29.8 in West 8.9 mph 9 mph 96% 0.02 in 0.00 W/m2
22:39 50.4 °F 48.9 °F 29.8 in WSW 6 mph 14 mph 95% 0.02 in 0.00 W/m2
22:44 50.4 °F 48.9 °F 29.8 in WSW 6 mph 12 mph 95% 0.02 in 0.00 W/m2
22:49 50.4 °F 48.9 °F 29.8 in WSW 6 mph 11 mph 95% 0.02 in 0.00 W/m2
22:54 50.5 °F 49.1 °F 29.8 in WSW 4.9 mph 16 mph 95% 0.01 in 0.00 W/m2
22:59 50.5 °F 49.1 °F 29.8 in WSW 10.1 mph 10 mph 95% 0.01 in 0.00 W/m2
23:04 50.5 °F 49.1 °F 29.8 in West 4 mph 11 mph 95% 0.01 in 0.00 W/m2
23:09 50.5 °F 49.1 °F 29.8 in West 6.9 mph 12 mph 95% 0.01 in 0.00 W/m2
23:14 50.7 °F 49.3 °F 29.8 in West 4 mph 11 mph 95% 0.01 in 0.00 W/m2
23:19 50.7 °F 49.3 °F 29.8 in WSW 13 mph 13 mph 95% 0.01 in 0.00 W/m2
23:24 50.9 °F 49.5 °F 29.8 in WSW 4 mph 11 mph 95% 0.01 in 0.00 W/m2
23:29 50.9 °F 49.3 °F 29.8 in WSW 14.1 mph 14 mph 94% 0.01 in 0.00 W/m2
23:34 50.9 °F 49.3 °F 29.8 in West 6.9 mph 11 mph 94% 0.02 in 0.00 W/m2
23:39 50.7 °F 49.1 °F 29.8 in WNW 6.9 mph 15 mph 94% 0.02 in 0.00 W/m2
23:42 50.9 °F 49.3 °F 29.8 in WSW 2.9 mph 10 mph 94% 0.02 in 0.00 W/m2
23:49 50.7 °F 49.1 °F 29.8 in SW 6.9 mph 11 mph 94% 0.02 in 0.00 W/m2
23:54 50.7 °F 49.1 °F 29.8 in WSW 11 mph 17 mph 94% 0.02 in 0.00 W/m2
23:59 50.7 °F 49.1 °F 29.8 in SW 6.9 mph 11 mph 94% 0.02 in 0.00 W/m2